createdAt,value
2023-05-25T00:00:53.445Z,10.92
2023-05-25T00:03:27.774Z,11.06
2023-05-25T00:05:54.541Z,11.08
2023-05-25T00:08:21.159Z,10.84
2023-05-25T00:10:47.616Z,10.87
2023-05-25T00:13:14.059Z,11.06
2023-05-25T00:15:40.883Z,10.95
2023-05-25T00:18:07.438Z,10.81
2023-05-25T00:20:34.630Z,10.64
2023-05-25T00:23:02.357Z,10.68
2023-05-25T00:25:29.676Z,10.53
2023-05-25T00:27:56.154Z,10.48
2023-05-25T00:30:22.692Z,10.53
2023-05-25T00:32:49.159Z,10.35
2023-05-25T00:35:15.724Z,10.24
2023-05-25T00:37:42.225Z,10.25
2023-05-25T00:40:14.385Z,10.12
2023-05-25T00:42:41.149Z,10.05
2023-05-25T00:45:08.010Z,10.02
2023-05-25T00:47:34.552Z,10.01
2023-05-25T00:50:02.023Z,9.89
2023-05-25T00:52:28.816Z,9.85
2023-05-25T00:54:59.650Z,9.78
2023-05-25T00:57:29.888Z,9.76
2023-05-25T00:59:58.079Z,9.77
2023-05-25T01:02:29.119Z,9.79
2023-05-25T01:05:00.926Z,9.66
2023-05-25T01:07:30.993Z,9.64
2023-05-25T01:09:59.959Z,9.55
2023-05-25T01:12:32.057Z,9.65
2023-05-25T01:15:00.770Z,9.52
2023-05-25T01:17:28.996Z,9.49
2023-05-25T01:20:09.505Z,9.41
2023-05-25T01:22:47.821Z,9.31
2023-05-25T01:25:23.071Z,9.36
2023-05-25T01:27:57.220Z,9.32
2023-05-25T01:30:26.355Z,9.25
2023-05-25T01:32:55.020Z,9.23
2023-05-25T01:35:22.898Z,9.03
2023-05-25T01:37:51.746Z,9.11
2023-05-25T01:40:18.203Z,9.20
2023-05-25T01:42:44.663Z,9.19
2023-05-25T01:45:13.096Z,9.04
2023-05-25T01:47:42.507Z,9.06
2023-05-25T01:50:31.363Z,9.07
2023-05-25T01:53:04.118Z,8.99
2023-05-25T01:55:39.287Z,8.99
2023-05-25T01:58:08.064Z,8.95
2023-05-25T02:00:35.771Z,8.94
2023-05-25T02:03:02.598Z,8.96
2023-05-25T02:05:29.140Z,8.88
2023-05-25T02:07:55.756Z,8.87
2023-05-25T02:10:22.192Z,8.75
2023-05-25T02:12:48.658Z,8.68
2023-05-25T02:15:16.081Z,8.69
2023-05-25T02:17:43.275Z,8.80
2023-05-25T02:20:11.183Z,8.72
2023-05-25T02:22:38.177Z,8.61
2023-05-25T02:25:05.706Z,8.65
2023-05-25T02:27:32.180Z,8.64
2023-05-25T02:29:58.681Z,8.56
2023-05-25T02:32:25.143Z,8.52
2023-05-25T02:34:51.693Z,8.54
2023-05-25T02:37:18.137Z,8.56
2023-05-25T02:39:44.605Z,8.58
2023-05-25T02:42:11.291Z,8.53
2023-05-25T02:44:37.762Z,8.50
2023-05-25T02:47:04.468Z,8.31
2023-05-25T02:49:30.994Z,8.40
2023-05-25T02:51:57.499Z,8.35
2023-05-25T02:54:23.922Z,8.42
2023-05-25T02:56:50.511Z,8.36
2023-05-25T02:59:16.979Z,8.38
2023-05-25T03:01:43.404Z,8.39
2023-05-25T03:04:09.913Z,8.35
2023-05-25T03:06:36.663Z,8.40
2023-05-25T03:09:05.107Z,8.43
2023-05-25T03:11:31.552Z,8.34
2023-05-25T03:13:58.007Z,8.34
2023-05-25T03:16:24.508Z,8.31
2023-05-25T03:18:50.957Z,8.26
2023-05-25T03:21:17.386Z,8.33
2023-05-25T03:23:44.080Z,8.33
2023-05-25T03:26:10.958Z,8.26
2023-05-25T03:28:37.378Z,8.33
2023-05-25T03:31:04.600Z,8.27
2023-05-25T03:33:31.125Z,8.29
2023-05-25T03:35:57.605Z,8.33
2023-05-25T03:38:24.062Z,8.25
2023-05-25T03:40:50.712Z,8.43
2023-05-25T03:43:17.372Z,8.28
2023-05-25T03:45:44.008Z,8.40
2023-05-25T03:48:10.738Z,8.37
2023-05-25T03:50:37.271Z,8.46
2023-05-25T03:53:03.731Z,8.64
2023-05-25T03:55:30.791Z,8.63
2023-05-25T03:57:57.285Z,8.55
2023-05-25T04:00:24.092Z,8.66
2023-05-25T04:02:50.946Z,8.69
2023-05-25T04:05:17.475Z,8.73
2023-05-25T04:07:44.361Z,8.58
2023-05-25T04:10:11.370Z,8.55
2023-05-25T04:12:38.512Z,8.79
2023-05-25T04:15:08.966Z,8.79
2023-05-25T04:17:39.064Z,8.86
2023-05-25T04:20:06.970Z,8.86
2023-05-25T04:22:33.570Z,8.96
2023-05-25T04:25:00.051Z,8.93
2023-05-25T04:27:26.747Z,9.06
2023-05-25T04:29:54.183Z,9.00
2023-05-25T04:32:21.521Z,9.11
2023-05-25T04:34:48.364Z,9.17
2023-05-25T04:37:14.853Z,9.21
2023-05-25T04:39:41.303Z,9.16
2023-05-25T04:42:07.772Z,9.30
2023-05-25T04:44:34.314Z,9.25
2023-05-25T04:47:01.341Z,9.30
2023-05-25T04:49:28.174Z,9.43
2023-05-25T04:51:54.702Z,9.52
2023-05-25T04:54:21.953Z,9.48
2023-05-25T04:56:48.414Z,9.59
2023-05-25T04:59:14.859Z,9.76
2023-05-25T05:01:41.490Z,9.72
2023-05-25T05:04:08.408Z,9.89
2023-05-25T05:06:36.608Z,9.92
2023-05-25T05:09:03.509Z,9.96
2023-05-25T05:11:30.342Z,9.97
2023-05-25T05:13:57.119Z,9.97
2023-05-25T05:16:23.681Z,9.74
2023-05-25T05:18:50.574Z,9.86
2023-05-25T05:21:17.156Z,9.95
2023-05-25T05:23:43.992Z,10.05
2023-05-25T05:26:11.591Z,10.23
2023-05-25T05:28:38.216Z,10.33
2023-05-25T05:31:04.725Z,10.45
2023-05-25T05:33:31.418Z,10.55
2023-05-25T05:35:57.983Z,10.71
2023-05-25T05:38:24.508Z,11.02
2023-05-25T05:40:50.978Z,11.01
2023-05-25T05:43:17.645Z,11.25
2023-05-25T05:45:44.311Z,11.26
2023-05-25T05:48:11.071Z,11.55
2023-05-25T05:50:40.968Z,11.66
2023-05-25T05:53:09.690Z,11.85
2023-05-25T05:55:36.166Z,12.01
2023-05-25T05:58:02.641Z,12.12
2023-05-25T06:00:29.304Z,12.57
2023-05-25T06:02:56.067Z,12.45
2023-05-25T06:05:23.126Z,12.67
2023-05-25T06:07:49.586Z,12.28
2023-05-25T06:10:16.230Z,11.81
2023-05-25T06:12:42.778Z,11.75
2023-05-25T06:15:09.736Z,11.84
2023-05-25T06:17:37.025Z,11.91
2023-05-25T06:20:03.774Z,11.90
2023-05-25T06:22:30.302Z,12.19
2023-05-25T06:24:56.797Z,12.38
2023-05-25T06:27:23.550Z,12.66
2023-05-25T06:29:50.018Z,12.42
2023-05-25T06:32:16.667Z,12.88
2023-05-25T06:34:43.215Z,12.71
2023-05-25T06:37:09.718Z,12.46
2023-05-25T06:39:36.223Z,12.65
2023-05-25T06:42:02.669Z,12.64
2023-05-25T06:44:29.765Z,12.32
2023-05-25T06:46:56.214Z,12.27
2023-05-25T06:49:22.700Z,12.47
2023-05-25T06:51:51.107Z,12.37
2023-05-25T06:54:17.661Z,12.79
2023-05-25T06:56:44.139Z,12.85
2023-05-25T06:59:10.607Z,13.32
2023-05-25T07:01:37.494Z,12.71
2023-05-25T07:04:04.054Z,12.52
2023-05-25T07:06:30.479Z,12.49
2023-05-25T07:08:56.988Z,12.64
2023-05-25T07:11:23.481Z,12.73
2023-05-25T07:13:49.978Z,12.56
2023-05-25T07:16:16.874Z,12.90
2023-05-25T07:18:43.378Z,13.24
2023-05-25T07:21:11.132Z,13.96
2023-05-25T07:23:38.348Z,14.00
2023-05-25T07:26:06.012Z,13.58
2023-05-25T07:28:32.816Z,13.42
2023-05-25T07:30:59.321Z,13.58
2023-05-25T07:33:25.958Z,13.18
2023-05-25T07:35:52.459Z,13.24
2023-05-25T07:38:18.921Z,13.31
2023-05-25T07:40:47.919Z,13.39
2023-05-25T07:43:14.561Z,13.44
2023-05-25T07:45:40.978Z,13.67
2023-05-25T07:48:07.970Z,13.64
2023-05-25T07:50:34.501Z,13.98
2023-05-25T07:53:01.139Z,14.58
2023-05-25T07:55:27.555Z,15.13
2023-05-25T07:57:54.312Z,15.33
2023-05-25T08:00:21.185Z,14.60
2023-05-25T08:02:47.820Z,14.38
2023-05-25T08:05:14.580Z,14.10
2023-05-25T08:07:42.798Z,14.15
2023-05-25T08:10:09.900Z,14.28
2023-05-25T08:12:47.984Z,14.76
2023-05-25T08:15:16.577Z,14.61
2023-05-25T08:17:43.277Z,15.29
2023-05-25T08:20:10.550Z,15.86
2023-05-25T08:22:37.313Z,16.25
2023-05-25T08:25:05.195Z,16.42
2023-05-25T08:27:34.416Z,16.38
2023-05-25T08:30:02.631Z,15.98
2023-05-25T08:32:29.101Z,15.66
2023-05-25T08:34:55.722Z,16.40
2023-05-25T08:37:22.580Z,17.06
2023-05-25T08:39:49.012Z,17.61
2023-05-25T08:42:15.621Z,17.35
2023-05-25T08:44:42.347Z,16.75
2023-05-25T08:47:08.818Z,16.96
2023-05-25T08:49:38.461Z,17.06
2023-05-25T08:52:05.958Z,17.35
2023-05-25T08:54:36.074Z,17.21
2023-05-25T08:57:06.022Z,17.54
2023-05-25T08:59:42.725Z,17.37
2023-05-25T09:02:31.284Z,17.71
2023-05-25T09:05:01.263Z,18.24
2023-05-25T09:07:28.844Z,18.59
2023-05-25T09:09:55.471Z,18.60
2023-05-25T09:12:24.967Z,19.20
2023-05-25T09:14:53.610Z,19.84
2023-05-25T09:17:21.154Z,19.63
2023-05-25T09:19:47.836Z,20.18
2023-05-25T09:22:16.405Z,20.32
2023-05-25T09:24:44.546Z,19.67
2023-05-25T09:27:12.910Z,20.22
2023-05-25T09:29:39.387Z,19.80
2023-05-25T09:32:09.169Z,19.71
2023-05-25T09:34:35.891Z,19.39
2023-05-25T09:37:19.005Z,20.52
2023-05-25T09:39:46.101Z,21.40
2023-05-25T09:42:12.628Z,21.53
2023-05-25T09:44:40.555Z,21.94
2023-05-25T09:47:07.230Z,21.27
2023-05-25T09:49:33.757Z,21.68
2023-05-25T09:52:00.678Z,21.53
2023-05-25T09:54:27.482Z,21.91
2023-05-25T09:56:54.343Z,21.96
2023-05-25T09:59:23.270Z,22.41
2023-05-25T10:01:55.891Z,21.72
2023-05-25T10:04:22.507Z,21.95
2023-05-25T10:06:52.114Z,22.19
2023-05-25T10:09:19.802Z,22.30
2023-05-25T10:11:48.070Z,21.82
2023-05-25T10:14:20.015Z,22.38
2023-05-25T10:16:50.429Z,22.86
2023-05-25T10:19:21.910Z,22.20
2023-05-25T10:21:58.256Z,22.89
2023-05-25T10:24:34.225Z,22.84
2023-05-25T10:27:14.548Z,23.33
2023-05-25T10:29:51.839Z,23.61
2023-05-25T10:32:19.079Z,23.11
2023-05-25T10:34:46.697Z,23.09
2023-05-25T10:37:14.748Z,23.46
2023-05-25T10:39:44.033Z,22.53
2023-05-25T10:42:11.362Z,23.01
2023-05-25T10:44:38.670Z,22.36
2023-05-25T10:47:06.325Z,22.65
2023-05-25T10:49:34.064Z,23.59
2023-05-25T10:52:02.392Z,23.81
2023-05-25T10:54:36.124Z,23.82
2023-05-25T10:57:14.169Z,23.85
2023-05-25T10:59:41.527Z,23.54
2023-05-25T11:02:09.264Z,23.28
2023-05-25T11:04:37.644Z,23.65
2023-05-25T11:07:10.684Z,23.13
2023-05-25T11:09:41.371Z,24.32
2023-05-25T11:12:08.526Z,24.07
2023-05-25T11:14:42.140Z,24.78
2023-05-25T11:17:18.382Z,25.36
2023-05-25T11:19:56.197Z,25.17
2023-05-25T11:22:35.383Z,25.07
2023-05-25T11:25:23.783Z,25.08
2023-05-25T11:27:54.155Z,25.40
2023-05-25T11:30:20.640Z,25.09
2023-05-25T11:32:50.733Z,24.24
2023-05-25T11:35:17.455Z,24.66
2023-05-25T11:37:50.684Z,23.87
2023-05-25T11:40:17.368Z,23.77
2023-05-25T11:42:48.243Z,24.51
2023-05-25T11:45:14.927Z,24.93
2023-05-25T11:47:41.561Z,24.62
2023-05-25T11:50:14.940Z,24.72
2023-05-25T11:52:41.558Z,24.99
2023-05-25T11:55:13.259Z,25.14
2023-05-25T11:57:40.602Z,25.43
2023-05-25T12:00:11.219Z,25.57
2023-05-25T12:02:39.192Z,24.24
2023-05-25T12:05:07.867Z,24.74
2023-05-25T12:07:43.994Z,25.06
2023-05-25T12:10:12.318Z,24.64
2023-05-25T12:12:41.794Z,25.42
2023-05-25T12:15:13.907Z,25.63
2023-05-25T12:17:42.385Z,25.94
2023-05-25T12:20:11.005Z,26.09
2023-05-25T12:22:39.552Z,26.35
2023-05-25T12:25:10.599Z,27.03
2023-05-25T12:27:37.413Z,26.14
2023-05-25T12:30:05.172Z,26.16
2023-05-25T12:32:31.922Z,26.69
2023-05-25T12:35:05.607Z,25.53
2023-05-25T12:37:32.788Z,25.97
2023-05-25T12:40:00.207Z,26.55
2023-05-25T12:42:27.434Z,26.72
2023-05-25T12:44:58.050Z,26.81
2023-05-25T12:47:27.851Z,27.00
2023-05-25T12:50:13.933Z,26.03
2023-05-25T12:52:45.059Z,26.64
2023-05-25T12:55:28.082Z,26.69
2023-05-25T12:57:58.023Z,26.48
2023-05-25T13:00:32.139Z,26.09
2023-05-25T13:02:59.368Z,25.85
2023-05-25T13:05:28.690Z,26.70
2023-05-25T13:07:57.295Z,25.71
2023-05-25T13:10:24.895Z,26.37
2023-05-25T13:12:53.511Z,26.57
2023-05-25T13:15:21.580Z,26.69
2023-05-25T13:17:50.367Z,26.17
2023-05-25T13:20:19.092Z,25.55
2023-05-25T13:22:47.120Z,25.64
2023-05-25T13:25:14.772Z,25.59
2023-05-25T13:27:48.400Z,25.76
2023-05-25T13:30:15.327Z,26.12
2023-05-25T13:32:43.492Z,25.47
2023-05-25T13:35:18.199Z,25.53
2023-05-25T13:37:47.840Z,24.90
2023-05-25T13:40:14.626Z,24.54
2023-05-25T13:42:41.267Z,24.78
2023-05-25T13:45:08.361Z,24.39
2023-05-25T13:47:34.969Z,23.91
2023-05-25T13:50:01.552Z,23.55
2023-05-25T13:52:28.729Z,23.06
2023-05-25T13:54:55.220Z,23.29
2023-05-25T13:57:22.593Z,23.80
2023-05-25T13:59:49.281Z,23.18
2023-05-25T14:02:15.950Z,23.04
2023-05-25T14:04:42.484Z,23.00
2023-05-25T14:07:08.920Z,23.02
2023-05-25T14:09:35.557Z,22.77
2023-05-25T14:12:03.022Z,23.01
2023-05-25T14:14:31.960Z,22.72
2023-05-25T14:17:00.275Z,22.92
2023-05-25T14:19:26.983Z,22.68
2023-05-25T14:22:11.079Z,22.56
2023-05-25T14:24:39.443Z,22.33
2023-05-25T14:27:07.173Z,22.37
2023-05-25T14:29:33.908Z,22.24
2023-05-25T14:32:00.587Z,21.99
2023-05-25T14:34:27.865Z,22.20
2023-05-25T14:36:54.407Z,22.35
2023-05-25T14:39:20.841Z,22.22
2023-05-25T14:41:47.284Z,22.07
2023-05-25T14:44:13.956Z,21.54
2023-05-25T14:46:40.466Z,21.74
2023-05-25T14:49:06.906Z,21.81
2023-05-25T14:51:33.446Z,21.63
2023-05-25T14:54:03.380Z,21.68
2023-05-25T14:56:29.743Z,21.70
2023-05-25T14:58:56.217Z,21.60
2023-05-25T15:01:25.178Z,21.79
2023-05-25T15:03:52.517Z,21.43
2023-05-25T15:06:19.144Z,21.20
2023-05-25T15:08:45.796Z,21.37
2023-05-25T15:11:12.244Z,21.37
2023-05-25T15:13:40.590Z,21.25
2023-05-25T15:16:07.116Z,21.37
2023-05-25T15:18:33.611Z,21.38
2023-05-25T15:21:00.143Z,21.49
2023-05-25T15:23:26.612Z,21.22
2023-05-25T15:25:53.085Z,21.43
2023-05-25T15:28:19.577Z,21.21
2023-05-25T15:30:46.087Z,20.88
2023-05-25T15:33:13.802Z,20.96
2023-05-25T15:35:40.520Z,20.79
2023-05-25T15:38:07.025Z,20.55
2023-05-25T15:40:33.565Z,20.39
2023-05-25T15:43:00.058Z,20.61
2023-05-25T15:45:26.729Z,20.92
2023-05-25T15:47:53.240Z,20.86
2023-05-25T15:50:19.827Z,20.75
2023-05-25T15:52:46.806Z,20.92
2023-05-25T15:55:13.305Z,21.12
2023-05-25T15:57:39.736Z,20.89
2023-05-25T16:00:06.778Z,20.90
2023-05-25T16:02:33.396Z,20.80
2023-05-25T16:04:59.855Z,20.89
2023-05-25T16:07:26.495Z,20.77
2023-05-25T16:09:52.959Z,20.79
2023-05-25T16:12:19.591Z,20.57
2023-05-25T16:17:12.621Z,20.59
2023-05-25T16:19:39.047Z,20.21
2023-05-25T16:22:06.452Z,19.98
2023-05-25T16:24:32.888Z,19.94
2023-05-25T16:26:59.369Z,19.80
2023-05-25T16:29:25.848Z,19.95
2023-05-25T16:31:53.479Z,19.83
2023-05-25T16:34:20.079Z,19.87
2023-05-25T16:36:46.493Z,19.98
2023-05-25T16:39:13.156Z,20.09
2023-05-25T16:41:41.223Z,20.05
2023-05-25T16:44:08.391Z,19.98
2023-05-25T16:46:34.834Z,20.04
2023-05-25T16:49:01.487Z,20.10
2023-05-25T16:51:27.983Z,20.05
2023-05-25T16:53:54.456Z,20.22
2023-05-25T16:56:21.454Z,20.33
2023-05-25T16:58:48.779Z,19.96
2023-05-25T17:01:15.440Z,19.84
2023-05-25T17:03:42.078Z,20.16
2023-05-25T17:06:08.649Z,20.11
2023-05-25T17:08:36.342Z,20.14
2023-05-25T17:11:02.814Z,19.92
2023-05-25T17:13:29.225Z,19.96
2023-05-25T17:15:55.745Z,19.91
2023-05-25T17:18:22.338Z,19.95
2023-05-25T17:20:48.940Z,20.00
2023-05-25T17:23:18.265Z,19.71
2023-05-25T17:25:45.017Z,19.62
2023-05-25T17:28:11.766Z,19.54
2023-05-25T17:30:38.193Z,19.48
2023-05-25T17:33:04.842Z,19.46
2023-05-25T17:35:31.393Z,19.28
2023-05-25T17:37:57.812Z,19.31
2023-05-25T17:40:24.244Z,19.33
2023-05-25T17:42:50.668Z,19.23
2023-05-25T17:45:17.191Z,19.14
2023-05-25T17:47:43.659Z,19.00
2023-05-25T17:50:10.406Z,18.85
2023-05-25T17:52:36.848Z,18.85
2023-05-25T17:55:04.050Z,18.62
2023-05-25T17:57:30.524Z,18.41
2023-05-25T17:59:57.143Z,18.42
2023-05-25T18:02:26.311Z,18.38
2023-05-25T18:04:52.828Z,18.45
2023-05-25T18:07:20.877Z,18.49
2023-05-25T18:09:47.313Z,18.42
2023-05-25T18:12:13.761Z,18.14
2023-05-25T18:14:40.242Z,17.76
2023-05-25T18:17:06.736Z,17.62
2023-05-25T18:19:33.256Z,17.48
2023-05-25T18:21:59.711Z,17.40
2023-05-25T18:24:26.368Z,17.35
2023-05-25T18:26:52.806Z,17.27
2023-05-25T18:29:19.488Z,17.12
2023-05-25T18:31:48.528Z,16.90
2023-05-25T18:34:15.257Z,16.78
2023-05-25T18:36:41.733Z,16.57
2023-05-25T18:39:08.202Z,16.47
2023-05-25T18:41:34.682Z,16.22
2023-05-25T18:44:01.117Z,16.21
2023-05-25T18:46:28.583Z,16.08
2023-05-25T18:48:55.772Z,16.10
2023-05-25T18:51:25.503Z,16.03
2023-05-25T18:53:51.964Z,15.89
2023-05-25T18:56:18.417Z,15.67
2023-05-25T18:58:44.935Z,15.31
2023-05-25T19:01:11.355Z,15.18
2023-05-25T19:03:37.921Z,15.01
2023-05-25T19:06:04.745Z,14.86
2023-05-25T19:08:31.177Z,14.84
2023-05-25T19:10:57.602Z,14.79
2023-05-25T19:13:24.473Z,14.61
2023-05-25T19:15:51.001Z,14.51
2023-05-25T19:18:17.598Z,14.49
2023-05-25T19:20:44.128Z,14.44
2023-05-25T19:23:10.653Z,14.30
2023-05-25T19:25:37.086Z,14.07
2023-05-25T19:28:03.552Z,14.08
2023-05-25T19:30:29.965Z,14.07
2023-05-25T19:32:56.443Z,13.86
2023-05-25T19:35:22.918Z,13.94
2023-05-25T19:37:49.395Z,14.01
2023-05-25T19:40:15.877Z,13.87
2023-05-25T19:42:42.476Z,13.59
2023-05-25T19:45:09.190Z,13.53
2023-05-25T19:47:35.891Z,13.39
2023-05-25T19:50:02.817Z,13.36
2023-05-25T19:52:29.265Z,13.26
2023-05-25T19:54:55.790Z,13.05
2023-05-25T19:57:22.302Z,13.10
2023-05-25T19:59:50.428Z,13.01
2023-05-25T20:02:17.084Z,12.96
2023-05-25T20:04:43.568Z,12.95
2023-05-25T20:07:10.230Z,12.78
2023-05-25T20:09:38.462Z,12.60
2023-05-25T20:12:06.246Z,12.51
2023-05-25T20:14:33.677Z,12.59
2023-05-25T20:17:00.355Z,12.51
2023-05-25T20:19:26.929Z,12.32
2023-05-25T20:21:53.436Z,12.21
2023-05-25T20:24:19.929Z,12.11
2023-05-25T20:26:46.373Z,12.09
2023-05-25T20:29:12.907Z,11.99
2023-05-25T20:31:40.250Z,11.95
2023-05-25T20:34:07.218Z,11.87
2023-05-25T20:36:33.624Z,11.77
2023-05-25T20:39:00.347Z,11.82
2023-05-25T20:41:27.045Z,11.74
2023-05-25T20:43:53.483Z,11.74
2023-05-25T20:46:20.024Z,11.71
2023-05-25T20:48:46.523Z,11.68
2023-05-25T20:51:14.195Z,11.44
2023-05-25T20:53:40.863Z,11.36
2023-05-25T20:56:07.356Z,11.35
2023-05-25T20:58:33.826Z,11.28
2023-05-25T21:01:00.510Z,11.18
2023-05-25T21:03:27.034Z,11.21
2023-05-25T21:05:53.591Z,11.12
2023-05-25T21:08:20.068Z,10.95
2023-05-25T21:10:46.486Z,10.98
2023-05-25T21:13:12.916Z,10.89
2023-05-25T21:15:39.407Z,10.81
2023-05-25T21:18:07.023Z,10.71
2023-05-25T21:20:33.732Z,10.49
2023-05-25T21:23:02.381Z,10.29
2023-05-25T21:25:32.009Z,10.31
2023-05-25T21:27:58.454Z,10.29
2023-05-25T21:30:24.953Z,10.32
2023-05-25T21:32:51.582Z,10.20
2023-05-25T21:35:18.255Z,10.09
2023-05-25T21:37:45.531Z,9.99
2023-05-25T21:40:12.590Z,9.86
2023-05-25T21:42:39.000Z,9.85
2023-05-25T21:45:05.828Z,9.74
2023-05-25T21:47:32.307Z,9.61
2023-05-25T21:49:58.721Z,9.56
2023-05-25T21:52:25.260Z,9.62
2023-05-25T21:54:51.696Z,9.57
2023-05-25T21:57:18.152Z,9.50
2023-05-25T21:59:44.576Z,9.50
2023-05-25T22:02:11.230Z,9.43
2023-05-25T22:04:37.724Z,9.37
2023-05-25T22:07:04.398Z,9.33
2023-05-25T22:09:31.817Z,9.44
2023-05-25T22:11:58.233Z,9.30
2023-05-25T22:14:24.646Z,9.25
2023-05-25T22:16:51.187Z,9.13
2023-05-25T22:19:17.684Z,9.19
2023-05-25T22:21:44.161Z,9.06
2023-05-25T22:24:10.716Z,8.95
2023-05-25T22:26:37.214Z,8.95
2023-05-25T22:29:03.699Z,8.97
2023-05-25T22:31:30.220Z,8.95
2023-05-25T22:33:56.702Z,8.87
2023-05-25T22:36:23.341Z,8.77
2023-05-25T22:38:49.763Z,8.75
2023-05-25T22:41:31.676Z,8.69
2023-05-25T22:43:58.227Z,8.52
2023-05-25T22:46:24.687Z,8.58
2023-05-25T22:48:51.646Z,8.57
2023-05-25T22:51:18.119Z,8.43
2023-05-25T22:53:44.564Z,8.46
2023-05-25T22:56:11.467Z,8.50
2023-05-25T22:58:38.050Z,8.45
2023-05-25T23:01:04.510Z,8.50
2023-05-25T23:03:31.017Z,8.36
2023-05-25T23:05:57.558Z,8.33
2023-05-25T23:08:24.042Z,8.25
2023-05-25T23:10:50.645Z,8.17
2023-05-25T23:13:18.668Z,8.15
2023-05-25T23:15:45.564Z,8.08
2023-05-25T23:18:12.260Z,8.22
2023-05-25T23:20:38.789Z,8.04
2023-05-25T23:23:05.345Z,8.03
2023-05-25T23:25:31.827Z,8.03
2023-05-25T23:27:58.256Z,8.03
2023-05-25T23:30:24.678Z,8.00
2023-05-25T23:32:51.610Z,7.93
2023-05-25T23:35:18.067Z,7.89
2023-05-25T23:37:44.564Z,8.02
2023-05-25T23:40:12.009Z,7.92
2023-05-25T23:42:39.871Z,7.90
2023-05-25T23:45:08.180Z,7.85
2023-05-25T23:47:34.843Z,7.59
2023-05-25T23:50:01.505Z,7.60
2023-05-25T23:52:28.056Z,7.69
2023-05-25T23:54:54.456Z,7.60
2023-05-25T23:57:20.879Z,7.56
2023-05-25T23:59:47.298Z,7.39
